Air Sicilia Virtual Airways - Route

Air Sicilia Virtual Airways - SIC301L

( SA ) OEGN
Jizan Regional Airport
JIZAN ( GIZ )
plane_to ( EG ) HEBA
Borg El Arab International Airport
ALEXANDRIA ( HBE )
Business Exec World Tour 2018 - LEG: 25

AIRPORT NEAR NAVIGATION AIDS

Type Name Frequency
VORTAC Jazan 117700 KHZ

METAR / TAF
OEGN 180400Z 12004KT 9000 NSC 31/27 Q1005 NOSIG

RUNWAY INFORMATION

Runway Runway length Runway width Runway elevation Runway displaced threshold Runway heading
15 10006 148 16 0 150
33 10006 148 20 0 330

AIRPORT FREQUENCIES

Type Name Frequency
GND GND 121.9 MHZ
TWR JAZAN TWR 118 MHZ

AIRPORT NEAR NAVIGATION AIDS

Type Name Frequency
NDB Borg El Arab 563 KHZ

METAR / TAF
HEBA 180400Z 30008KT CAVOK 24/22 Q1008 NOSIG

RUNWAY INFORMATION

Runway Runway length Runway width Runway elevation Runway displaced threshold Runway heading
14 11156 148 177 0 142.8
32 11156 148 133 0 322.8
14R 1347 148 0 0 142.6
32L 1347 148 0 0 322.6
14S 1347 148 0 0 142.8
32S 1347 148 0 0 322.8

AIRPORT FREQUENCIES

Type Name Frequency
APP ALEX RADAR 122.3 MHZ
APP APP 122.8 MHZ
TWR TWR 119.1 MHZ

Flightplan

GIZ L677 ABKAR M999 LOVIL B544 JDW L677 CVO A1 NOZ

Air Sicilia Virtual Airways Fleets

AVAILABLE AIRCRAFTS for route at this time in Jizan Regional Airport
C550 - Cessna 550 Citation II
( US ) Cessna

Aircraft in fleet: 1

CL30 - BD-100 Challenger 300
( CA ) Bombardier

Aircraft in fleet: 1

LJ35 - Bombardier Learjet 35A
( CA ) Bombardier

Aircraft in fleet: 1

1100 NM

Distance in nautical miles.

€ 300,00

Ticket price for this flight.

Nr. 25

Leg



12-11-2018
Aerosoft Airport Rio de Janeiro International V2.0 XP

L'Aeroporto Internazionale di Rio de Janeiro-Galeão (IATA: GIG, ICAO: SBGL), costruito nel 1952 nel quartiere di Ilha do Governador ed intitolato al musicista Antônio Carlos Jobim, è il principale aeroporto internazio ....


15-10-2018
Aerosoft A320 Family professional

La gamma di aeromobili A320 è una delle più comuni nei cieli. Questi aerei di linea a doppio-getto a corto e medio raggio si sono dimostrati convenienti, affidabili e prontamente disponibili, rendendoli le opzioni migl ....


10-10-2018
Motore critico ( Critical Engine )

Il motore critico di un velivolo ad ala fissa multi-motore è il motore che, in caso di guasto, influirebbe negativamente sulle prestazioni o sulla capacità di manovra di un aereo. Sui velivoli ad elica, vi è un ....


04-10-2018
Aerosoft Dortmund XP

Scopri il centro della regione della Ruhr su XPlane 11 - lo scenario Dortmund XP è una ricostruzione completa della città di Dortmund per il simulatore di volo targato Laminar. Oltre all'intera area urbana di Dortmu ....


07-08-2018
Aerosoft Professional Flight Planner PFPX

PFPX - Professional Flight Planner X - è un nuovo ed innovativo strumento di pianificazione del volo sviluppato da piloti e dispatcher del mondo reale. È un'aggiunta preziosa e realistica alla tua esperienza di simulaz ....